Clay Township, Michigan
Current Conditions -  °F | °C
As of 6:55 PM on Saturday 25 Oct 2014 (Local Time) from KMTC Reporting Station
Clear Clear  
Wind Chill: 63°   Ceiling: Unl
Heat Index: 63°   Visibility: 12mi
Dew Point: 27°   Wind: 20mph
Humidity: 26%   Direction: 280°W
Pressure: 29.7"   Gusts: 23mph
Location:  42.6418°N, 82.5677°W
Report Text: KMTC 252255Z 28017G20KT 12SM CLR 17/M03 A2970 RMK PK WND 28027/02 SLP065 T01721028
Loading
Personal Weather Stations






























Interactive Weather Map
Tropical Storm Tracking
New forecast layout! Learn more

10-Day Weather Forecast

Advertisements
Track Severe Weather on mobile